sensor_id;sensor_type;location;lat;lon;timestamp;temperature;humidity
7720;DHT22;3902;49.474;8.616;2023-03-24T00:00:18;14.90;99.90
7720;DHT22;3902;49.474;8.616;2023-03-24T00:02:44;14.80;99.90
7720;DHT22;3902;49.474;8.616;2023-03-24T00:05:13;14.80;99.90
7720;DHT22;3902;49.474;8.616;2023-03-24T00:07:40;14.80;99.90
7720;DHT22;3902;49.474;8.616;2023-03-24T00:10:07;14.80;99.90
7720;DHT22;3902;49.474;8.616;2023-03-24T00:12:37;14.80;99.90
7720;DHT22;3902;49.474;8.616;2023-03-24T00:15:05;14.80;99.90
7720;DHT22;3902;49.474;8.616;2023-03-24T00:17:31;14.80;99.90
7720;DHT22;3902;49.474;8.616;2023-03-24T00:20:03;14.80;99.90
7720;DHT22;3902;49.474;8.616;2023-03-24T00:22:33;14.80;99.90
7720;DHT22;3902;49.474;8.616;2023-03-24T00:24:58;14.80;99.90
7720;DHT22;3902;49.474;8.616;2023-03-24T00:27:24;14.80;99.90
7720;DHT22;3902;49.474;8.616;2023-03-24T00:29:49;14.70;99.90
7720;DHT22;3902;49.474;8.616;2023-03-24T00:32:15;14.80;99.90
7720;DHT22;3902;49.474;8.616;2023-03-24T00:34:41;14.70;99.90
7720;DHT22;3902;49.474;8.616;2023-03-24T00:37:08;14.70;99.90
7720;DHT22;3902;49.474;8.616;2023-03-24T00:39:33;14.70;99.90
7720;DHT22;3902;49.474;8.616;2023-03-24T00:42:00;14.70;99.90
7720;DHT22;3902;49.474;8.616;2023-03-24T00:44:27;14.70;99.90
7720;DHT22;3902;49.474;8.616;2023-03-24T00:46:53;14.70;99.90
7720;DHT22;3902;49.474;8.616;2023-03-24T00:49:26;14.70;99.90
7720;DHT22;3902;49.474;8.616;2023-03-24T00:52:14;14.60;99.90
7720;DHT22;3902;49.474;8.616;2023-03-24T00:54:42;14.60;99.90
7720;DHT22;3902;49.474;8.616;2023-03-24T00:57:10;14.60;99.90
7720;DHT22;3902;49.474;8.616;2023-03-24T00:59:37;14.60;99.90
7720;DHT22;3902;49.474;8.616;2023-03-24T01:02:10;14.60;99.90
7720;DHT22;3902;49.474;8.616;2023-03-24T01:04:38;14.60;99.90
7720;DHT22;3902;49.474;8.616;2023-03-24T01:07:04;14.60;99.90
7720;DHT22;3902;49.474;8.616;2023-03-24T01:09:30;14.50;99.90
7720;DHT22;3902;49.474;8.616;2023-03-24T01:11:56;14.60;99.90
7720;DHT22;3902;49.474;8.616;2023-03-24T01:14:21;14.50;99.90
7720;DHT22;3902;49.474;8.616;2023-03-24T01:16:48;14.50;99.90
7720;DHT22;3902;49.474;8.616;2023-03-24T01:19:14;14.60;99.90
7720;DHT22;3902;49.474;8.616;2023-03-24T01:21:39;14.50;99.90
7720;DHT22;3902;49.474;8.616;2023-03-24T01:24:06;14.50;99.90
7720;DHT22;3902;49.474;8.616;2023-03-24T01:26:32;14.50;99.90
7720;DHT22;3902;49.474;8.616;2023-03-24T01:28:58;14.60;99.90
7720;DHT22;3902;49.474;8.616;2023-03-24T01:31:23;14.50;99.90
7720;DHT22;3902;49.474;8.616;2023-03-24T01:33:49;14.50;99.90
7720;DHT22;3902;49.474;8.616;2023-03-24T01:36:15;14.60;99.90
7720;DHT22;3902;49.474;8.616;2023-03-24T01:38:40;14.50;99.90
7720;DHT22;3902;49.474;8.616;2023-03-24T01:41:06;14.50;99.90
7720;DHT22;3902;49.474;8.616;2023-03-24T01:43:33;14.60;99.90
7720;DHT22;3902;49.474;8.616;2023-03-24T01:46:05;14.60;99.90
7720;DHT22;3902;49.474;8.616;2023-03-24T01:54:25;14.60;99.90
7720;DHT22;3902;49.474;8.616;2023-03-24T01:57:01;14.60;99.90
7720;DHT22;3902;49.474;8.616;2023-03-24T01:59:29;14.50;99.90
7720;DHT22;3902;49.474;8.616;2023-03-24T02:01:56;14.50;99.90
7720;DHT22;3902;49.474;8.616;2023-03-24T02:04:33;14.50;99.90
7720;DHT22;3902;49.474;8.616;2023-03-24T02:07:15;14.50;99.90
7720;DHT22;3902;49.474;8.616;2023-03-24T02:09:42;14.50;99.90
7720;DHT22;3902;49.474;8.616;2023-03-24T02:12:07;14.60;99.90
7720;DHT22;3902;49.474;8.616;2023-03-24T02:14:33;14.60;99.90
7720;DHT22;3902;49.474;8.616;2023-03-24T02:19:50;14.60;99.90
7720;DHT22;3902;49.474;8.616;2023-03-24T02:22:51;14.60;99.90
7720;DHT22;3902;49.474;8.616;2023-03-24T02:28:20;14.60;99.90
7720;DHT22;3902;49.474;8.616;2023-03-24T02:50:56;14.70;99.90
7720;DHT22;3902;49.474;8.616;2023-03-24T02:56:37;14.70;99.90
7720;DHT22;3902;49.474;8.616;2023-03-24T02:59:07;14.70;99.90
7720;DHT22;3902;49.474;8.616;2023-03-24T03:01:45;14.80;99.90
7720;DHT22;3902;49.474;8.616;2023-03-24T03:04:26;14.80;99.90
7720;DHT22;3902;49.474;8.616;2023-03-24T03:06:56;14.80;99.90
7720;DHT22;3902;49.474;8.616;2023-03-24T03:09:24;14.80;99.90
7720;DHT22;3902;49.474;8.616;2023-03-24T03:11:53;14.80;99.90
7720;DHT22;3902;49.474;8.616;2023-03-24T03:14:27;14.80;99.90
7720;DHT22;3902;49.474;8.616;2023-03-24T03:17:01;14.80;99.90
7720;DHT22;3902;49.474;8.616;2023-03-24T03:19:43;14.90;99.90
7720;DHT22;3902;49.474;8.616;2023-03-24T03:22:16;14.90;99.90
7720;DHT22;3902;49.474;8.616;2023-03-24T03:24:47;14.90;99.90
7720;DHT22;3902;49.474;8.616;2023-03-24T03:27:27;14.90;99.90
7720;DHT22;3902;49.474;8.616;2023-03-24T03:30:03;14.90;99.90
7720;DHT22;3902;49.474;8.616;2023-03-24T03:32:32;15.00;99.90
7720;DHT22;3902;49.474;8.616;2023-03-24T03:35:15;14.90;99.90
7720;DHT22;3902;49.474;8.616;2023-03-24T03:42:52;15.00;99.90
7720;DHT22;3902;49.474;8.616;2023-03-24T03:45:18;15.00;99.90
7720;DHT22;3902;49.474;8.616;2023-03-24T03:47:44;15.00;99.90
7720;DHT22;3902;49.474;8.616;2023-03-24T03:50:10;15.00;99.90
7720;DHT22;3902;49.474;8.616;2023-03-24T03:52:38;15.00;99.90
7720;DHT22;3902;49.474;8.616;2023-03-24T03:55:05;15.00;99.90
7720;DHT22;3902;49.474;8.616;2023-03-24T03:57:31;15.00;99.90
7720;DHT22;3902;49.474;8.616;2023-03-24T03:59:59;15.10;99.90
7720;DHT22;3902;49.474;8.616;2023-03-24T04:05:18;15.10;99.90
7720;DHT22;3902;49.474;8.616;2023-03-24T04:16:08;15.10;99.90
7720;DHT22;3902;49.474;8.616;2023-03-24T04:18:46;15.20;99.90
7720;DHT22;3902;49.474;8.616;2023-03-24T04:21:30;15.10;99.90
7720;DHT22;3902;49.474;8.616;2023-03-24T04:27:39;15.10;99.90
7720;DHT22;3902;49.474;8.616;2023-03-24T04:32:31;15.10;99.90
7720;DHT22;3902;49.474;8.616;2023-03-24T04:35:07;15.10;99.90
7720;DHT22;3902;49.474;8.616;2023-03-24T04:37:35;15.10;99.90
7720;DHT22;3902;49.474;8.616;2023-03-24T04:40:07;15.10;99.90
7720;DHT22;3902;49.474;8.616;2023-03-24T04:42:47;15.10;99.90
7720;DHT22;3902;49.474;8.616;2023-03-24T04:45:14;15.10;99.90
7720;DHT22;3902;49.474;8.616;2023-03-24T04:47:45;15.10;99.90
7720;DHT22;3902;49.474;8.616;2023-03-24T04:50:12;15.00;99.90
7720;DHT22;3902;49.474;8.616;2023-03-24T04:52:41;15.00;99.90
7720;DHT22;3902;49.474;8.616;2023-03-24T04:55:44;15.10;99.90
7720;DHT22;3902;49.474;8.616;2023-03-24T04:58:10;15.00;99.90
7720;DHT22;3902;49.474;8.616;2023-03-24T05:00:35;15.00;99.90
7720;DHT22;3902;49.474;8.616;2023-03-24T05:03:02;15.00;99.90
7720;DHT22;3902;49.474;8.616;2023-03-24T05:05:27;15.00;99.90
7720;DHT22;3902;49.474;8.616;2023-03-24T05:07:53;15.00;99.90
7720;DHT22;3902;49.474;8.616;2023-03-24T05:10:21;14.90;99.90
7720;DHT22;3902;49.474;8.616;2023-03-24T05:12:47;14.90;99.90
7720;DHT22;3902;49.474;8.616;2023-03-24T05:15:12;14.90;99.90
7720;DHT22;3902;49.474;8.616;2023-03-24T05:17:38;14.90;99.90
7720;DHT22;3902;49.474;8.616;2023-03-24T05:20:04;14.80;99.90
7720;DHT22;3902;49.474;8.616;2023-03-24T05:22:38;14.80;99.90
7720;DHT22;3902;49.474;8.616;2023-03-24T05:25:04;14.80;99.90
7720;DHT22;3902;49.474;8.616;2023-03-24T05:27:30;14.80;99.90
7720;DHT22;3902;49.474;8.616;2023-03-24T05:29:56;14.80;99.90
7720;DHT22;3902;49.474;8.616;2023-03-24T05:32:22;14.70;99.90
7720;DHT22;3902;49.474;8.616;2023-03-24T05:34:47;14.70;99.90
7720;DHT22;3902;49.474;8.616;2023-03-24T05:37:13;14.70;99.90
7720;DHT22;3902;49.474;8.616;2023-03-24T05:39:41;14.70;99.90
7720;DHT22;3902;49.474;8.616;2023-03-24T05:42:07;14.70;99.90
7720;DHT22;3902;49.474;8.616;2023-03-24T05:44:32;14.60;99.90
7720;DHT22;3902;49.474;8.616;2023-03-24T05:46:58;14.60;99.90
7720;DHT22;3902;49.474;8.616;2023-03-24T05:49:23;14.60;99.90
7720;DHT22;3902;49.474;8.616;2023-03-24T05:51:49;14.60;99.90
7720;DHT22;3902;49.474;8.616;2023-03-24T05:54:15;14.50;99.90
7720;DHT22;3902;49.474;8.616;2023-03-24T05:56:41;14.60;99.90
7720;DHT22;3902;49.474;8.616;2023-03-24T05:59:06;14.50;99.90
7720;DHT22;3902;49.474;8.616;2023-03-24T06:01:32;14.50;99.90
7720;DHT22;3902;49.474;8.616;2023-03-24T06:03:58;14.50;99.90
7720;DHT22;3902;49.474;8.616;2023-03-24T06:06:23;14.50;99.90
7720;DHT22;3902;49.474;8.616;2023-03-24T06:08:50;14.50;99.90
7720;DHT22;3902;49.474;8.616;2023-03-24T06:11:18;14.50;99.90
7720;DHT22;3902;49.474;8.616;2023-03-24T06:13:44;14.50;99.90
7720;DHT22;3902;49.474;8.616;2023-03-24T06:16:10;14.50;99.90
7720;DHT22;3902;49.474;8.616;2023-03-24T06:18:35;14.50;99.90
7720;DHT22;3902;49.474;8.616;2023-03-24T06:21:01;14.50;99.90
7720;DHT22;3902;49.474;8.616;2023-03-24T06:23:27;14.50;99.90
7720;DHT22;3902;49.474;8.616;2023-03-24T06:25:54;14.50;99.90
7720;DHT22;3902;49.474;8.616;2023-03-24T06:28:20;14.50;99.90
7720;DHT22;3902;49.474;8.616;2023-03-24T06:30:47;14.60;99.90
7720;DHT22;3902;49.474;8.616;2023-03-24T06:33:13;14.50;99.90
7720;DHT22;3902;49.474;8.616;2023-03-24T06:35:39;14.50;99.90
7720;DHT22;3902;49.474;8.616;2023-03-24T06:38:05;14.50;99.90
7720;DHT22;3902;49.474;8.616;2023-03-24T06:40:31;14.50;99.90
7720;DHT22;3902;49.474;8.616;2023-03-24T06:42:57;14.50;99.90
7720;DHT22;3902;49.474;8.616;2023-03-24T06:45:23;14.50;99.90
7720;DHT22;3902;49.474;8.616;2023-03-24T06:47:51;14.50;99.90
7720;DHT22;3902;49.474;8.616;2023-03-24T06:50:19;14.50;99.90
7720;DHT22;3902;49.474;8.616;2023-03-24T06:52:45;14.50;99.90
7720;DHT22;3902;49.474;8.616;2023-03-24T06:55:11;14.50;99.90
7720;DHT22;3902;49.474;8.616;2023-03-24T06:57:37;14.40;99.90
7720;DHT22;3902;49.474;8.616;2023-03-24T07:00:03;14.40;99.90
7720;DHT22;3902;49.474;8.616;2023-03-24T07:02:30;14.40;99.90
7720;DHT22;3902;49.474;8.616;2023-03-24T07:05:00;14.40;99.90
7720;DHT22;3902;49.474;8.616;2023-03-24T07:07:30;14.40;99.90
7720;DHT22;3902;49.474;8.616;2023-03-24T07:09:56;14.50;99.90
7720;DHT22;3902;49.474;8.616;2023-03-24T07:12:21;14.50;99.90
7720;DHT22;3902;49.474;8.616;2023-03-24T07:14:47;14.50;99.90
7720;DHT22;3902;49.474;8.616;2023-03-24T07:17:12;14.50;99.90
7720;DHT22;3902;49.474;8.616;2023-03-24T07:19:38;14.50;99.90
7720;DHT22;3902;49.474;8.616;2023-03-24T07:22:04;14.50;99.90
7720;DHT22;3902;49.474;8.616;2023-03-24T07:24:33;14.50;99.90
7720;DHT22;3902;49.474;8.616;2023-03-24T07:26:59;14.50;99.90
7720;DHT22;3902;49.474;8.616;2023-03-24T07:29:24;14.60;99.90
7720;DHT22;3902;49.474;8.616;2023-03-24T07:31:50;14.60;99.90
7720;DHT22;3902;49.474;8.616;2023-03-24T07:34:17;14.60;99.90
7720;DHT22;3902;49.474;8.616;2023-03-24T07:36:43;14.60;99.90
7720;DHT22;3902;49.474;8.616;2023-03-24T07:39:08;14.60;99.90
7720;DHT22;3902;49.474;8.616;2023-03-24T07:41:34;14.70;99.90
7720;DHT22;3902;49.474;8.616;2023-03-24T07:43:59;14.60;99.90
7720;DHT22;3902;49.474;8.616;2023-03-24T07:46:25;14.50;99.90
7720;DHT22;3902;49.474;8.616;2023-03-24T07:48:51;14.50;99.90
7720;DHT22;3902;49.474;8.616;2023-03-24T07:51:16;14.50;99.90
7720;DHT22;3902;49.474;8.616;2023-03-24T07:53:44;14.50;99.90
7720;DHT22;3902;49.474;8.616;2023-03-24T07:56:10;14.50;99.90
7720;DHT22;3902;49.474;8.616;2023-03-24T07:58:35;14.50;99.90
7720;DHT22;3902;49.474;8.616;2023-03-24T08:01:01;14.60;99.90
7720;DHT22;3902;49.474;8.616;2023-03-24T08:03:26;14.50;99.90
7720;DHT22;3902;49.474;8.616;2023-03-24T08:05:53;14.50;99.90
7720;DHT22;3902;49.474;8.616;2023-03-24T08:08:19;14.50;99.90
7720;DHT22;3902;49.474;8.616;2023-03-24T08:10:46;14.50;99.90
7720;DHT22;3902;49.474;8.616;2023-03-24T08:13:14;14.50;99.90
7720;DHT22;3902;49.474;8.616;2023-03-24T08:15:40;14.40;99.90
7720;DHT22;3902;49.474;8.616;2023-03-24T08:18:05;14.50;99.90
7720;DHT22;3902;49.474;8.616;2023-03-24T08:20:31;14.50;99.90
7720;DHT22;3902;49.474;8.616;2023-03-24T08:22:56;14.50;99.90
7720;DHT22;3902;49.474;8.616;2023-03-24T08:25:24;14.50;99.90
7720;DHT22;3902;49.474;8.616;2023-03-24T08:27:50;14.50;99.90
7720;DHT22;3902;49.474;8.616;2023-03-24T08:30:21;14.50;99.90
7720;DHT22;3902;49.474;8.616;2023-03-24T08:32:55;14.50;99.90
7720;DHT22;3902;49.474;8.616;2023-03-24T08:35:27;14.50;99.90
7720;DHT22;3902;49.474;8.616;2023-03-24T08:37:53;14.50;99.90
7720;DHT22;3902;49.474;8.616;2023-03-24T08:40:21;14.50;99.90
7720;DHT22;3902;49.474;8.616;2023-03-24T08:42:50;14.50;99.90
7720;DHT22;3902;49.474;8.616;2023-03-24T08:45:17;14.40;99.90
7720;DHT22;3902;49.474;8.616;2023-03-24T08:47:46;14.40;99.90
7720;DHT22;3902;49.474;8.616;2023-03-24T08:50:12;14.40;99.90
7720;DHT22;3902;49.474;8.616;2023-03-24T08:52:37;14.40;99.90
7720;DHT22;3902;49.474;8.616;2023-03-24T08:55:03;14.40;99.90
7720;DHT22;3902;49.474;8.616;2023-03-24T08:57:29;14.40;99.90
7720;DHT22;3902;49.474;8.616;2023-03-24T08:59:55;14.40;99.90
7720;DHT22;3902;49.474;8.616;2023-03-24T09:02:21;14.40;99.90
7720;DHT22;3902;49.474;8.616;2023-03-24T09:04:47;14.50;99.90
7720;DHT22;3902;49.474;8.616;2023-03-24T09:07:14;14.50;99.90
7720;DHT22;3902;49.474;8.616;2023-03-24T09:09:40;14.50;99.90
7720;DHT22;3902;49.474;8.616;2023-03-24T09:12:06;14.60;99.90
7720;DHT22;3902;49.474;8.616;2023-03-24T09:14:31;14.70;99.90
7720;DHT22;3902;49.474;8.616;2023-03-24T09:16:57;14.60;99.90
7720;DHT22;3902;49.474;8.616;2023-03-24T09:19:22;14.60;99.90
7720;DHT22;3902;49.474;8.616;2023-03-24T09:21:48;14.60;99.90
7720;DHT22;3902;49.474;8.616;2023-03-24T09:24:14;14.60;99.90
7720;DHT22;3902;49.474;8.616;2023-03-24T09:26:40;14.60;99.90
7720;DHT22;3902;49.474;8.616;2023-03-24T09:29:06;14.60;99.90
7720;DHT22;3902;49.474;8.616;2023-03-24T09:31:31;14.60;99.90
7720;DHT22;3902;49.474;8.616;2023-03-24T09:33:57;14.70;99.90
7720;DHT22;3902;49.474;8.616;2023-03-24T09:36:22;14.70;99.90
7720;DHT22;3902;49.474;8.616;2023-03-24T09:38:48;14.60;99.90
7720;DHT22;3902;49.474;8.616;2023-03-24T09:41:16;14.60;99.90
7720;DHT22;3902;49.474;8.616;2023-03-24T09:43:51;14.60;99.90
7720;DHT22;3902;49.474;8.616;2023-03-24T09:46:40;14.60;99.90
7720;DHT22;3902;49.474;8.616;2023-03-24T09:49:11;14.60;99.90
7720;DHT22;3902;49.474;8.616;2023-03-24T09:51:42;14.60;99.90
7720;DHT22;3902;49.474;8.616;2023-03-24T09:54:25;14.60;99.90
7720;DHT22;3902;49.474;8.616;2023-03-24T09:56:53;14.60;99.90
7720;DHT22;3902;49.474;8.616;2023-03-24T09:59:25;14.60;99.90
7720;DHT22;3902;49.474;8.616;2023-03-24T10:01:54;14.50;99.90
7720;DHT22;3902;49.474;8.616;2023-03-24T10:04:24;14.60;99.90
7720;DHT22;3902;49.474;8.616;2023-03-24T10:06:59;14.50;99.90
7720;DHT22;3902;49.474;8.616;2023-03-24T10:09:28;14.50;99.90
7720;DHT22;3902;49.474;8.616;2023-03-24T10:14:26;14.50;99.90
7720;DHT22;3902;49.474;8.616;2023-03-24T10:17:28;14.50;99.90
7720;DHT22;3902;49.474;8.616;2023-03-24T10:22:59;14.50;99.90
7720;DHT22;3902;49.474;8.616;2023-03-24T10:25:44;14.50;99.90
7720;DHT22;3902;49.474;8.616;2023-03-24T10:28:25;14.50;99.90
7720;DHT22;3902;49.474;8.616;2023-03-24T10:30:55;14.50;99.90
7720;DHT22;3902;49.474;8.616;2023-03-24T10:33:21;14.40;99.90
7720;DHT22;3902;49.474;8.616;2023-03-24T10:36:00;14.50;99.90
7720;DHT22;3902;49.474;8.616;2023-03-24T10:38:27;14.40;99.90
7720;DHT22;3902;49.474;8.616;2023-03-24T10:40:53;14.40;99.90
7720;DHT22;3902;49.474;8.616;2023-03-24T10:43:20;14.50;99.90
7720;DHT22;3902;49.474;8.616;2023-03-24T10:45:50;14.50;99.90
7720;DHT22;3902;49.474;8.616;2023-03-24T10:51:03;14.50;99.90
7720;DHT22;3902;49.474;8.616;2023-03-24T10:53:30;14.50;99.90
7720;DHT22;3902;49.474;8.616;2023-03-24T10:55:55;14.50;99.90
7720;DHT22;3902;49.474;8.616;2023-03-24T10:58:41;14.50;99.90
7720;DHT22;3902;49.474;8.616;2023-03-24T11:01:26;14.50;99.90
7720;DHT22;3902;49.474;8.616;2023-03-24T11:04:02;14.50;99.90
7720;DHT22;3902;49.474;8.616;2023-03-24T11:06:30;14.50;99.90
7720;DHT22;3902;49.474;8.616;2023-03-24T11:09:19;14.60;99.90
7720;DHT22;3902;49.474;8.616;2023-03-24T11:11:45;14.60;99.90
7720;DHT22;3902;49.474;8.616;2023-03-24T11:14:37;14.50;99.90
7720;DHT22;3902;49.474;8.616;2023-03-24T11:17:12;14.50;99.90
7720;DHT22;3902;49.474;8.616;2023-03-24T11:19:55;14.30;99.90
7720;DHT22;3902;49.474;8.616;2023-03-24T11:22:21;14.10;99.90
7720;DHT22;3902;49.474;8.616;2023-03-24T11:24:54;13.90;99.90
7720;DHT22;3902;49.474;8.616;2023-03-24T11:27:20;13.80;99.90
7720;DHT22;3902;49.474;8.616;2023-03-24T11:29:51;13.80;99.90
7720;DHT22;3902;49.474;8.616;2023-03-24T11:32:25;13.70;99.90
7720;DHT22;3902;49.474;8.616;2023-03-24T11:35:15;13.80;99.90
7720;DHT22;3902;49.474;8.616;2023-03-24T11:37:43;13.80;99.90
7720;DHT22;3902;49.474;8.616;2023-03-24T11:40:17;13.90;99.90
7720;DHT22;3902;49.474;8.616;2023-03-24T11:42:48;13.90;99.90
7720;DHT22;3902;49.474;8.616;2023-03-24T11:48:05;13.90;99.90
7720;DHT22;3902;49.474;8.616;2023-03-24T11:50:37;14.00;99.90
7720;DHT22;3902;49.474;8.616;2023-03-24T11:53:16;14.10;99.90
7720;DHT22;3902;49.474;8.616;2023-03-24T11:56:05;14.10;99.90
7720;DHT22;3902;49.474;8.616;2023-03-24T11:58:38;14.20;99.90
7720;DHT22;3902;49.474;8.616;2023-03-24T12:01:21;14.10;99.90
7720;DHT22;3902;49.474;8.616;2023-03-24T12:04:23;14.20;99.90
7720;DHT22;3902;49.474;8.616;2023-03-24T12:09:54;14.30;99.90
7720;DHT22;3902;49.474;8.616;2023-03-24T12:15:34;14.50;99.90
7720;DHT22;3902;49.474;8.616;2023-03-24T12:20:58;14.60;99.90
7720;DHT22;3902;49.474;8.616;2023-03-24T12:26:16;14.70;99.90
7720;DHT22;3902;49.474;8.616;2023-03-24T12:37:38;14.90;99.90
7720;DHT22;3902;49.474;8.616;2023-03-24T12:43:26;15.60;99.90
7720;DHT22;3902;49.474;8.616;2023-03-24T12:45:57;16.10;99.90
7720;DHT22;3902;49.474;8.616;2023-03-24T12:48:48;16.50;99.90
7720;DHT22;3902;49.474;8.616;2023-03-24T12:51:52;16.80;99.90
7720;DHT22;3902;49.474;8.616;2023-03-24T12:54:44;17.20;99.90
7720;DHT22;3902;49.474;8.616;2023-03-24T12:57:16;17.50;99.90
7720;DHT22;3902;49.474;8.616;2023-03-24T12:59:50;17.50;99.90
7720;DHT22;3902;49.474;8.616;2023-03-24T13:04:47;18.30;99.90
7720;DHT22;3902;49.474;8.616;2023-03-24T13:07:18;18.70;99.90
7720;DHT22;3902;49.474;8.616;2023-03-24T13:09:50;19.40;99.90
7720;DHT22;3902;49.474;8.616;2023-03-24T13:12:36;19.80;99.90
7720;DHT22;3902;49.474;8.616;2023-03-24T13:20:19;20.70;99.90
7720;DHT22;3902;49.474;8.616;2023-03-24T13:22:47;21.00;99.90
7720;DHT22;3902;49.474;8.616;2023-03-24T13:25:34;21.10;99.90
7720;DHT22;3902;49.474;8.616;2023-03-24T13:28:05;21.00;99.90
7720;DHT22;3902;49.474;8.616;2023-03-24T13:30:42;20.50;99.90
7720;DHT22;3902;49.474;8.616;2023-03-24T13:33:13;20.30;99.90
7720;DHT22;3902;49.474;8.616;2023-03-24T13:36:03;20.00;99.90
7720;DHT22;3902;49.474;8.616;2023-03-24T13:38:54;19.40;99.90
7720;DHT22;3902;49.474;8.616;2023-03-24T13:41:22;19.00;99.90
7720;DHT22;3902;49.474;8.616;2023-03-24T13:44:05;18.60;99.90
7720;DHT22;3902;49.474;8.616;2023-03-24T13:46:39;18.30;99.90
7720;DHT22;3902;49.474;8.616;2023-03-24T13:49:10;18.40;99.90
7720;DHT22;3902;49.474;8.616;2023-03-24T13:51:42;18.30;99.90
7720;DHT22;3902;49.474;8.616;2023-03-24T13:54:20;18.10;99.90
7720;DHT22;3902;49.474;8.616;2023-03-24T13:57:05;18.10;99.90
7720;DHT22;3902;49.474;8.616;2023-03-24T14:05:08;20.10;99.90
7720;DHT22;3902;49.474;8.616;2023-03-24T14:10:28;21.70;99.90
7720;DHT22;3902;49.474;8.616;2023-03-24T14:15:30;22.10;99.90
7720;DHT22;3902;49.474;8.616;2023-03-24T14:23:37;22.60;99.90
7720;DHT22;3902;49.474;8.616;2023-03-24T14:26:06;22.80;99.90
7720;DHT22;3902;49.474;8.616;2023-03-24T14:28:42;22.70;99.50
7720;DHT22;3902;49.474;8.616;2023-03-24T14:33:56;21.80;98.50
7720;DHT22;3902;49.474;8.616;2023-03-24T14:36:37;21.80;98.30
7720;DHT22;3902;49.474;8.616;2023-03-24T14:41:53;21.30;97.20
7720;DHT22;3902;49.474;8.616;2023-03-24T14:47:24;20.90;97.70
7720;DHT22;3902;49.474;8.616;2023-03-24T14:49:51;20.20;99.10
7720;DHT22;3902;49.474;8.616;2023-03-24T14:52:22;19.70;99.90
7720;DHT22;3902;49.474;8.616;2023-03-24T14:55:04;19.40;99.90
7720;DHT22;3902;49.474;8.616;2023-03-24T14:57:38;19.10;99.90
7720;DHT22;3902;49.474;8.616;2023-03-24T15:00:31;18.90;99.90
7720;DHT22;3902;49.474;8.616;2023-03-24T15:03:10;18.70;99.90
7720;DHT22;3902;49.474;8.616;2023-03-24T15:05:40;18.50;99.90
7720;DHT22;3902;49.474;8.616;2023-03-24T15:08:18;18.30;99.90
7720;DHT22;3902;49.474;8.616;2023-03-24T15:13:50;18.10;99.90
7720;DHT22;3902;49.474;8.616;2023-03-24T15:16:19;17.80;99.90
7720;DHT22;3902;49.474;8.616;2023-03-24T15:18:57;17.80;99.90
7720;DHT22;3902;49.474;8.616;2023-03-24T15:21:33;17.70;99.90
7720;DHT22;3902;49.474;8.616;2023-03-24T15:24:00;17.80;99.90
7720;DHT22;3902;49.474;8.616;2023-03-24T15:26:28;17.70;99.90
7720;DHT22;3902;49.474;8.616;2023-03-24T15:29:01;17.60;99.90
7720;DHT22;3902;49.474;8.616;2023-03-24T15:31:27;17.80;99.90
7720;DHT22;3902;49.474;8.616;2023-03-24T15:34:03;18.00;99.90
7720;DHT22;3902;49.474;8.616;2023-03-24T15:36:33;18.10;99.90
7720;DHT22;3902;49.474;8.616;2023-03-24T15:39:00;18.20;99.90
7720;DHT22;3902;49.474;8.616;2023-03-24T15:41:25;18.40;99.90
7720;DHT22;3902;49.474;8.616;2023-03-24T15:43:52;18.60;99.90
7720;DHT22;3902;49.474;8.616;2023-03-24T15:46:30;18.80;99.90
7720;DHT22;3902;49.474;8.616;2023-03-24T15:48:57;18.80;99.90
7720;DHT22;3902;49.474;8.616;2023-03-24T15:51:56;19.00;99.90
7720;DHT22;3902;49.474;8.616;2023-03-24T15:54:35;19.10;99.90
7720;DHT22;3902;49.474;8.616;2023-03-24T15:57:14;19.20;99.90
7720;DHT22;3902;49.474;8.616;2023-03-24T15:59:49;19.20;99.90
7720;DHT22;3902;49.474;8.616;2023-03-24T16:02:26;19.20;99.90
7720;DHT22;3902;49.474;8.616;2023-03-24T16:05:00;19.00;99.90
7720;DHT22;3902;49.474;8.616;2023-03-24T16:07:30;18.80;99.90
7720;DHT22;3902;49.474;8.616;2023-03-24T16:10:02;18.60;99.90
7720;DHT22;3902;49.474;8.616;2023-03-24T16:12:32;18.30;99.90
7720;DHT22;3902;49.474;8.616;2023-03-24T16:14:58;17.90;99.90
7720;DHT22;3902;49.474;8.616;2023-03-24T16:17:23;17.70;99.90
7720;DHT22;3902;49.474;8.616;2023-03-24T16:19:49;17.60;99.90
7720;DHT22;3902;49.474;8.616;2023-03-24T16:22:15;17.50;99.90
7720;DHT22;3902;49.474;8.616;2023-03-24T16:24:40;17.50;99.90
7720;DHT22;3902;49.474;8.616;2023-03-24T16:27:06;17.30;99.90
7720;DHT22;3902;49.474;8.616;2023-03-24T16:29:32;17.30;99.90
7720;DHT22;3902;49.474;8.616;2023-03-24T16:31:58;17.50;99.90
7720;DHT22;3902;49.474;8.616;2023-03-24T16:34:24;17.40;99.90
7720;DHT22;3902;49.474;8.616;2023-03-24T16:36:52;17.20;99.90
7720;DHT22;3902;49.474;8.616;2023-03-24T16:39:20;17.30;99.90
7720;DHT22;3902;49.474;8.616;2023-03-24T16:41:46;17.20;99.90
7720;DHT22;3902;49.474;8.616;2023-03-24T16:44:12;17.20;99.90
7720;DHT22;3902;49.474;8.616;2023-03-24T16:46:38;17.10;99.90
7720;DHT22;3902;49.474;8.616;2023-03-24T16:49:06;17.00;99.90
7720;DHT22;3902;49.474;8.616;2023-03-24T16:51:32;17.00;99.90
7720;DHT22;3902;49.474;8.616;2023-03-24T16:53:58;16.80;99.90
7720;DHT22;3902;49.474;8.616;2023-03-24T16:56:24;16.70;99.90
7720;DHT22;3902;49.474;8.616;2023-03-24T16:58:50;16.70;99.90
7720;DHT22;3902;49.474;8.616;2023-03-24T17:06:29;16.50;99.90
7720;DHT22;3902;49.474;8.616;2023-03-24T17:08:55;16.50;99.90
7720;DHT22;3902;49.474;8.616;2023-03-24T17:11:28;16.50;99.90
7720;DHT22;3902;49.474;8.616;2023-03-24T17:13:55;16.40;99.90
7720;DHT22;3902;49.474;8.616;2023-03-24T17:16:32;16.40;99.90
7720;DHT22;3902;49.474;8.616;2023-03-24T17:19:06;16.40;99.90
7720;DHT22;3902;49.474;8.616;2023-03-24T17:21:44;16.40;99.90
7720;DHT22;3902;49.474;8.616;2023-03-24T17:24:11;16.40;99.90
7720;DHT22;3902;49.474;8.616;2023-03-24T17:26:39;16.40;99.90
7720;DHT22;3902;49.474;8.616;2023-03-24T17:29:05;16.30;99.90
7720;DHT22;3902;49.474;8.616;2023-03-24T17:31:31;16.30;99.90
7720;DHT22;3902;49.474;8.616;2023-03-24T17:33:57;16.30;99.90
7720;DHT22;3902;49.474;8.616;2023-03-24T17:36:23;16.30;99.90
7720;DHT22;3902;49.474;8.616;2023-03-24T17:38:49;16.30;99.90
7720;DHT22;3902;49.474;8.616;2023-03-24T17:41:15;16.30;99.90
7720;DHT22;3902;49.474;8.616;2023-03-24T17:43:40;16.30;99.90
7720;DHT22;3902;49.474;8.616;2023-03-24T17:46:06;16.20;99.90
7720;DHT22;3902;49.474;8.616;2023-03-24T17:48:32;16.10;99.90
7720;DHT22;3902;49.474;8.616;2023-03-24T17:50:57;16.10;99.90
7720;DHT22;3902;49.474;8.616;2023-03-24T17:53:24;16.10;99.90
7720;DHT22;3902;49.474;8.616;2023-03-24T17:55:57;16.10;99.90
7720;DHT22;3902;49.474;8.616;2023-03-24T17:58:24;16.00;99.90
7720;DHT22;3902;49.474;8.616;2023-03-24T18:00:51;15.90;99.90
7720;DHT22;3902;49.474;8.616;2023-03-24T18:03:17;15.80;99.90
7720;DHT22;3902;49.474;8.616;2023-03-24T18:05:43;15.80;99.90
7720;DHT22;3902;49.474;8.616;2023-03-24T18:08:08;15.80;99.90
7720;DHT22;3902;49.474;8.616;2023-03-24T18:10:34;15.60;99.90
7720;DHT22;3902;49.474;8.616;2023-03-24T18:13:01;15.60;99.90
7720;DHT22;3902;49.474;8.616;2023-03-24T18:15:27;15.60;99.90
7720;DHT22;3902;49.474;8.616;2023-03-24T18:17:53;15.50;99.90
7720;DHT22;3902;49.474;8.616;2023-03-24T18:20:19;15.60;99.90
7720;DHT22;3902;49.474;8.616;2023-03-24T18:22:44;15.50;99.90
7720;DHT22;3902;49.474;8.616;2023-03-24T18:25:11;15.50;99.90
7720;DHT22;3902;49.474;8.616;2023-03-24T18:27:38;15.40;99.90
7720;DHT22;3902;49.474;8.616;2023-03-24T18:30:06;15.40;99.90
7720;DHT22;3902;49.474;8.616;2023-03-24T18:32:32;15.40;99.90